createdAt,value
2018-05-14T00:03:32.125Z,107.50
2018-05-14T00:07:25.289Z,97.27
2018-05-14T00:11:18.419Z,110.73
2018-05-14T00:15:11.573Z,109.65
2018-05-14T00:19:04.724Z,118.77
2018-05-14T00:22:58.692Z,122.20
2018-05-14T00:26:51.908Z,124.67
2018-05-14T00:30:45.049Z,143.47
2018-05-14T00:34:38.237Z,141.70
2018-05-14T00:38:31.720Z,135.80
2018-05-14T00:42:24.963Z,131.13
2018-05-14T00:46:18.909Z,149.70
2018-05-14T00:50:12.257Z,151.37
2018-05-14T00:54:05.453Z,149.80
2018-05-14T00:57:59.336Z,166.50
2018-05-14T01:01:53.832Z,143.70
2018-05-14T01:05:47.011Z,168.23
2018-05-14T01:09:40.236Z,163.30
2018-05-14T01:13:33.379Z,183.87
2018-05-14T01:17:26.746Z,164.07
2018-05-14T01:21:20.004Z,164.40
2018-05-14T01:25:14.147Z,162.17
2018-05-14T01:29:08.047Z,166.37
2018-05-14T01:33:01.238Z,165.57
2018-05-14T01:36:54.479Z,180.33
2018-05-14T01:40:47.730Z,167.10
2018-05-14T01:44:40.834Z,167.33
2018-05-14T01:48:34.035Z,199.17
2018-05-14T01:52:27.242Z,164.80
2018-05-14T01:56:20.892Z,158.73
2018-05-14T02:00:14.030Z,176.07
2018-05-14T02:04:07.242Z,162.48
2018-05-14T02:08:00.624Z,148.00
2018-05-14T02:11:54.971Z,159.03
2018-05-14T02:15:48.228Z,130.13
2018-05-14T02:19:41.480Z,149.23
2018-05-14T02:23:34.768Z,138.03
2018-05-14T02:27:27.983Z,138.33
2018-05-14T02:31:21.102Z,171.97
2018-05-14T02:35:14.254Z,143.57
2018-05-14T02:39:07.499Z,132.20
2018-05-14T02:43:00.644Z,154.03
2018-05-14T02:46:53.815Z,137.73
2018-05-14T02:50:47.032Z,150.20
2018-05-14T02:54:43.204Z,147.37
2018-05-14T02:58:36.397Z,146.17
2018-05-14T03:02:29.571Z,146.77
2018-05-14T03:06:22.836Z,144.30
2018-05-14T03:10:15.951Z,149.93
2018-05-14T03:14:09.625Z,155.03
2018-05-14T03:18:02.828Z,148.23
2018-05-14T03:21:56.546Z,155.27
2018-05-14T03:25:49.847Z,161.50
2018-05-14T03:29:43.117Z,146.57
2018-05-14T03:33:37.012Z,152.83
2018-05-14T03:37:30.158Z,161.53
2018-05-14T03:41:23.327Z,145.57
2018-05-14T03:45:16.546Z,139.40
2018-05-14T03:49:09.805Z,153.10
2018-05-14T03:53:03.003Z,129.20
2018-05-14T03:56:56.349Z,135.10
2018-05-14T04:01:01.442Z,128.57
2018-05-14T04:05:06.462Z,144.57
2018-05-14T04:08:59.643Z,113.67
2018-05-14T04:12:53.614Z,126.07
2018-05-14T04:16:46.739Z,129.43
2018-05-14T04:20:39.871Z,118.43
2018-05-14T04:24:33.032Z,122.50
2018-05-14T04:28:26.978Z,121.93
2018-05-14T04:32:20.430Z,131.03
2018-05-14T04:36:15.720Z,124.27
2018-05-14T04:40:08.943Z,136.27
2018-05-14T04:44:02.844Z,138.65
2018-05-14T04:47:57.190Z,123.60
2018-05-14T04:51:50.351Z,115.60
2018-05-14T04:55:43.569Z,107.43
2018-05-14T04:59:36.935Z,96.43
2018-05-14T05:03:30.864Z,112.57
2018-05-14T05:07:24.509Z,108.73
2018-05-14T05:11:17.875Z,120.37
2018-05-14T05:15:11.530Z,119.27
2018-05-14T05:19:04.884Z,109.57
2018-05-14T05:22:58.457Z,104.03
2018-05-14T05:26:53.397Z,121.80
2018-05-14T05:30:46.866Z,116.00
2018-05-14T05:34:40.256Z,106.13
2018-05-14T05:38:33.512Z,113.40
2018-05-14T05:42:28.559Z,104.30
2018-05-14T05:46:21.921Z,112.30
2018-05-14T05:50:15.239Z,105.87
2018-05-14T05:54:10.426Z,93.73
2018-05-14T05:58:04.000Z,102.30
2018-05-14T06:01:57.301Z,86.93
2018-05-14T06:05:49.864Z,98.53
2018-05-14T06:09:43.183Z,89.70
2018-05-14T06:13:36.439Z,80.63
2018-05-14T06:17:29.665Z,81.27
2018-05-14T06:21:22.943Z,73.87
2018-05-14T06:25:16.223Z,69.80
2018-05-14T06:29:09.490Z,62.08
2018-05-14T06:33:02.656Z,57.83
2018-05-14T06:36:56.731Z,64.17
2018-05-14T06:40:49.866Z,54.33
2018-05-14T06:44:43.959Z,50.20
2018-05-14T06:48:37.320Z,49.90
2018-05-14T06:52:31.731Z,46.60
2018-05-14T06:56:26.423Z,43.93
2018-05-14T07:00:19.738Z,46.80
2018-05-14T07:04:13.038Z,35.07
2018-05-14T07:08:06.274Z,38.20
2018-05-14T07:12:00.033Z,36.53
2018-05-14T07:15:53.549Z,34.10
2018-05-14T07:19:46.700Z,33.10
2018-05-14T07:23:39.961Z,39.03
2018-05-14T07:27:33.292Z,40.60
2018-05-14T07:31:26.617Z,35.60
2018-05-14T07:35:19.908Z,34.53
2018-05-14T07:39:13.199Z,26.37
2018-05-14T07:43:06.340Z,30.63
2018-05-14T07:47:01.157Z,32.37
2018-05-14T07:50:54.441Z,34.67
2018-05-14T07:54:47.771Z,30.13
2018-05-14T07:58:41.132Z,28.93
2018-05-14T08:02:34.342Z,28.97
2018-05-14T08:06:27.605Z,31.80
2018-05-14T08:10:20.824Z,31.27
2018-05-14T08:14:14.192Z,32.73
2018-05-14T08:18:09.385Z,29.93
2018-05-14T08:22:07.695Z,29.90
2018-05-14T08:26:00.902Z,30.53
2018-05-14T08:29:54.167Z,31.40
2018-05-14T08:33:47.397Z,28.67
2018-05-14T08:37:40.692Z,31.40
2018-05-14T08:41:34.247Z,32.70
2018-05-14T08:45:28.035Z,28.87
2018-05-14T08:49:21.285Z,32.47
2018-05-14T08:53:14.627Z,29.90
2018-05-14T08:57:08.661Z,28.63
2018-05-14T09:01:02.099Z,30.87
2018-05-14T09:04:56.561Z,32.77
2018-05-14T09:08:50.073Z,31.63
2018-05-14T09:12:44.600Z,29.93
2018-05-14T09:16:38.090Z,30.77
2018-05-14T09:20:31.272Z,30.70
2018-05-14T09:24:24.970Z,30.37
2018-05-14T09:28:18.293Z,35.23
2018-05-14T09:32:12.312Z,30.63
2018-05-14T09:36:05.533Z,28.83
2018-05-14T09:40:00.369Z,28.23
2018-05-14T09:43:53.711Z,30.03
2018-05-14T09:47:47.750Z,29.43
2018-05-14T09:51:41.030Z,31.73
2018-05-14T09:55:34.281Z,26.77
2018-05-14T09:59:28.378Z,27.20
2018-05-14T10:03:23.849Z,27.20
2018-05-14T10:07:16.891Z,30.60
2018-05-14T10:11:11.693Z,29.87
2018-05-14T10:15:07.923Z,27.17
2018-05-14T10:19:04.362Z,29.53
2018-05-14T10:22:57.728Z,34.63
2018-05-14T10:26:53.372Z,24.03
2018-05-14T10:30:47.767Z,28.53
2018-05-14T10:34:41.176Z,24.70
2018-05-14T10:38:34.689Z,18.93
2018-05-14T10:42:28.696Z,27.27
2018-05-14T10:46:23.794Z,25.53
2018-05-14T10:50:19.536Z,27.67
2018-05-14T10:54:15.044Z,23.17
2018-05-14T10:58:08.519Z,21.90
2018-05-14T11:06:01.963Z,24.98
2018-05-14T11:09:56.284Z,24.00
2018-05-14T11:17:50.469Z,18.80
2018-05-14T11:21:51.544Z,22.83
2018-05-14T11:25:48.418Z,21.47
2018-05-14T11:29:43.478Z,20.60
2018-05-14T11:33:37.493Z,15.93
2018-05-14T11:37:31.440Z,18.33
2018-05-14T11:41:24.720Z,18.63
2018-05-14T11:45:17.983Z,18.50
2018-05-14T11:49:11.266Z,19.73
2018-05-14T11:53:04.538Z,16.67
2018-05-14T11:56:57.789Z,17.40
2018-05-14T12:00:51.058Z,14.73
2018-05-14T12:04:45.252Z,14.00
2018-05-14T12:08:38.523Z,14.97
2018-05-14T12:12:33.993Z,17.90
2018-05-14T12:16:28.797Z,14.83
2018-05-14T12:20:22.603Z,11.90
2018-05-14T12:24:15.919Z,12.63
2018-05-14T12:28:09.208Z,16.30
2018-05-14T12:32:02.494Z,13.17
2018-05-14T12:35:56.531Z,11.90
2018-05-14T12:39:49.771Z,11.00
2018-05-14T12:43:42.973Z,11.97
2018-05-14T12:47:36.361Z,10.83
2018-05-14T12:51:30.416Z,10.33
2018-05-14T12:55:23.729Z,10.97
2018-05-14T12:59:17.853Z,12.83
2018-05-14T13:03:11.055Z,10.97
2018-05-14T13:07:04.477Z,9.97
2018-05-14T13:10:57.634Z,7.47
2018-05-14T13:14:50.882Z,6.30
2018-05-14T13:18:45.261Z,8.60
2018-05-14T13:22:38.780Z,6.33
2018-05-14T13:26:32.153Z,6.00
2018-05-14T13:30:25.423Z,9.17
2018-05-14T13:34:20.012Z,7.80
2018-05-14T13:38:13.959Z,5.72
2018-05-14T13:42:08.056Z,5.10
2018-05-14T13:46:01.460Z,6.30
2018-05-14T13:49:54.788Z,4.70
2018-05-14T13:53:48.124Z,14.57
2018-05-14T13:57:42.138Z,5.70
2018-05-14T14:01:35.452Z,4.40
2018-05-14T14:05:28.726Z,5.90
2018-05-14T14:09:23.158Z,4.20
2018-05-14T14:13:16.458Z,8.27
2018-05-14T14:17:10.165Z,5.60
2018-05-14T14:21:03.475Z,6.20
2018-05-14T14:24:57.583Z,6.10
2018-05-14T14:28:52.065Z,5.57
